Time,TemperatureF,DewpointF,PressureIn,WindDirection,WindDirectionDegrees,WindSpeedMPH,WindSpeedGustMPH,Humidity,HourlyPrecipIn,Conditions,Clouds,dailyrainin,SoftwareType,DateUTC
2013-10-10 00:13:00,48.4,46.2,-100.00,WNW,292,0.0,-999.0,92,-99.99,,,0.00,Acu-Link.com,2013-10-10 04:13:00,
2013-10-10 00:28:00,48.2,46.0,-100.00,NW,315,0.0,-999.0,92,-99.99,,,0.00,Acu-Link.com,2013-10-10 04:28:00,
2013-10-10 00:43:00,47.8,45.9,-100.00,WNW,292,0.0,-999.0,93,-99.99,,,0.00,Acu-Link.com,2013-10-10 04:43:00,
2013-10-10 00:58:00,47.8,46.2,-100.00,WNW,292,0.0,-999.0,94,-99.99,,,0.00,Acu-Link.com,2013-10-10 04:58:00,
2013-10-10 01:13:00,47.7,46.0,-100.00,WNW,292,0.0,-999.0,94,-99.99,,,0.00,Acu-Link.com,2013-10-10 05:13:00,
2013-10-10 01:28:00,47.5,46.1,-100.00,NW,315,0.0,-999.0,95,-99.99,,,0.00,Acu-Link.com,2013-10-10 05:28:00,
2013-10-10 01:43:00,47.5,46.1,-100.00,WSW,247,2.7,-999.0,95,-99.99,,,0.00,Acu-Link.com,2013-10-10 05:43:00,
2013-10-10 01:59:00,47.5,46.1,-100.00,NW,315,0.0,-999.0,95,-99.99,,,0.00,Acu-Link.com,2013-10-10 05:59:00,
2013-10-10 02:14:00,46.9,45.6,-100.00,WNW,292,1.1,-999.0,95,-99.99,,,0.00,Acu-Link.com,2013-10-10 06:14:00,
2013-10-10 02:30:00,46.8,45.7,-100.00,NNW,337,1.1,-999.0,96,-99.99,,,0.00,Acu-Link.com,2013-10-10 06:30:00,
2013-10-10 02:45:00,46.4,45.3,-100.00,WNW,292,2.2,-999.0,96,-99.99,,,0.00,Acu-Link.com,2013-10-10 06:45:00,
2013-10-10 03:00:00,46.2,45.1,-100.00,NW,315,3.8,-999.0,96,-99.99,,,0.00,Acu-Link.com,2013-10-10 07:00:00,
2013-10-10 03:15:00,46.0,45.0,-100.00,NNW,337,2.2,-999.0,96,-99.99,,,0.00,Acu-Link.com,2013-10-10 07:15:00,
2013-10-10 03:31:00,46.0,45.2,-100.00,WNW,292,2.7,-999.0,97,-99.99,,,0.00,Acu-Link.com,2013-10-10 07:31:00,
2013-10-10 03:46:00,46.0,45.2,-100.00,WSW,247,0.0,-999.0,97,-99.99,,,0.00,Acu-Link.com,2013-10-10 07:46:00,
2013-10-10 04:01:00,46.0,45.2,-100.00,NW,315,1.6,-999.0,97,-99.99,,,0.00,Acu-Link.com,2013-10-10 08:01:00,
2013-10-10 08:45:00,51.1,48.0,-100.00,SE,135,0.0,-999.0,89,-99.99,,,0.00,Acu-Link.com,2013-10-10 12:45:00,
2013-10-10 09:00:00,52.2,48.1,-100.00,North,0,3.8,-999.0,86,-99.99,,,0.00,Acu-Link.com,2013-10-10 13:00:00,
2013-10-10 09:15:00,54.0,48.9,-100.00,NNW,337,2.7,-999.0,83,-99.99,,,0.00,Acu-Link.com,2013-10-10 13:15:00,
2013-10-10 09:30:00,54.9,49.5,-100.00,NNE,22,1.6,-999.0,82,-99.99,,,0.00,Acu-Link.com,2013-10-10 13:30:00,
2013-10-10 09:46:00,55.0,49.6,-100.00,SSE,157,0.0,-999.0,82,-99.99,,,0.00,Acu-Link.com,2013-10-10 13:46:00,
2013-10-10 10:01:00,56.5,50.4,-100.00,NNE,22,2.2,-999.0,80,-99.99,,,0.00,Acu-Link.com,2013-10-10 14:01:00,
2013-10-10 10:16:00,57.7,50.9,-100.00,NE,45,2.7,-999.0,78,-99.99,,,0.00,Acu-Link.com,2013-10-10 14:16:00,
2013-10-10 10:31:00,60.3,51.9,-100.00,ESE,112,7.4,-999.0,74,-99.99,,,0.00,Acu-Link.com,2013-10-10 14:31:00,
2013-10-10 10:47:00,61.3,52.2,-100.00,NE,45,3.1,-999.0,72,-99.99,,,0.00,Acu-Link.com,2013-10-10 14:47:00,
2013-10-10 11:02:00,61.0,51.9,-100.00,NNW,337,4.3,-999.0,72,-99.99,,,0.00,Acu-Link.com,2013-10-10 15:02:00,
2013-10-10 11:17:00,61.3,52.2,-100.00,NNE,22,2.2,-999.0,72,-99.99,,,0.00,Acu-Link.com,2013-10-10 15:17:00,
2013-10-10 11:32:00,61.3,52.2,-100.00,ENE,67,8.3,-999.0,72,-99.99,,,0.00,Acu-Link.com,2013-10-10 15:32:00,
2013-10-10 11:47:00,61.7,52.6,-100.00,ESE,112,6.7,-999.0,72,-99.99,,,0.00,Acu-Link.com,2013-10-10 15:47:00,
2013-10-10 12:02:00,62.6,52.7,-100.00,WNW,292,5.8,-999.0,70,-99.99,,,0.00,Acu-Link.com,2013-10-10 16:02:00,
2013-10-10 12:17:00,63.1,52.8,-100.00,ESE,112,3.8,-999.0,69,-99.99,,,0.00,Acu-Link.com,2013-10-10 16:17:00,
2013-10-10 12:33:00,63.1,53.2,-100.00,SE,135,3.8,-999.0,70,-99.99,,,0.00,Acu-Link.com,2013-10-10 16:33:00,
2013-10-10 12:48:00,63.7,53.3,-100.00,SSE,157,3.1,-999.0,69,-99.99,,,0.00,Acu-Link.com,2013-10-10 16:48:00,
2013-10-10 13:03:00,63.5,53.5,-100.00,NW,315,3.8,-999.0,70,-99.99,,,0.00,Acu-Link.com,2013-10-10 17:03:00,
2013-10-10 13:18:00,62.6,53.1,-100.00,ENE,67,2.2,-999.0,71,-99.99,,,0.00,Acu-Link.com,2013-10-10 17:18:00,
2013-10-10 13:33:00,62.6,53.4,-100.00,ESE,112,2.2,-999.0,72,-99.99,,,0.00,Acu-Link.com,2013-10-10 17:33:00,
2013-10-10 13:48:00,62.2,52.7,-100.00,NNE,22,3.1,-999.0,71,-99.99,,,0.00,Acu-Link.com,2013-10-10 17:48:00,
2013-10-10 14:04:00,62.1,52.9,-100.00,NE,45,1.6,-999.0,72,-99.99,,,0.00,Acu-Link.com,2013-10-10 18:04:00,
2013-10-10 14:19:00,61.9,52.4,-100.00,ESE,112,3.1,-999.0,71,-99.99,,,0.00,Acu-Link.com,2013-10-10 18:19:00,
2013-10-10 14:34:00,62.1,52.5,-100.00,NNE,22,3.1,-999.0,71,-99.99,,,0.00,Acu-Link.com,2013-10-10 18:34:00,
2013-10-10 14:49:00,62.4,52.9,-100.00,SE,135,4.3,-999.0,71,-99.99,,,0.00,Acu-Link.com,2013-10-10 18:49:00,
2013-10-10 15:04:00,61.2,52.4,-100.00,ESE,112,6.3,-999.0,73,-99.99,,,0.00,Acu-Link.com,2013-10-10 19:04:00,
2013-10-10 15:20:00,60.4,52.1,-100.00,ESE,112,5.8,-999.0,74,-99.99,,,0.00,Acu-Link.com,2013-10-10 19:20:00,
2013-10-10 15:35:00,60.4,51.7,-100.00,ESE,112,4.3,-999.0,73,-99.99,,,0.00,Acu-Link.com,2013-10-10 19:35:00,
2013-10-10 15:50:00,60.3,51.6,-100.00,ESE,112,2.2,-999.0,73,-99.99,,,0.00,Acu-Link.com,2013-10-10 19:50:00,
2013-10-10 16:05:00,60.8,52.5,-100.00,ESE,112,4.7,-999.0,74,-99.99,,,0.00,Acu-Link.com,2013-10-10 20:05:00,
2013-10-10 16:20:00,59.9,52.7,-100.00,SSE,157,4.3,-999.0,77,-99.99,,,0.00,Acu-Link.com,2013-10-10 20:20:00,
2013-10-10 16:35:00,59.9,53.0,-100.00,SSE,157,7.4,-999.0,78,-99.99,,,0.00,Acu-Link.com,2013-10-10 20:35:00,
2013-10-10 16:50:00,59.0,52.8,-100.00,SSE,157,4.3,-999.0,80,-99.99,,,0.00,Acu-Link.com,2013-10-10 20:50:00,
2013-10-10 17:06:00,59.4,53.2,-100.00,SE,135,5.8,-999.0,80,-99.99,,,0.00,Acu-Link.com,2013-10-10 21:06:00,
2013-10-10 17:21:00,59.2,53.0,-100.00,East,90,3.8,-999.0,80,-99.99,,,0.00,Acu-Link.com,2013-10-10 21:21:00,
2013-10-10 17:36:00,59.2,53.4,-100.00,ENE,67,1.6,-999.0,81,-99.99,,,0.00,Acu-Link.com,2013-10-10 21:36:00,
2013-10-10 17:51:00,59.0,53.2,-100.00,ESE,112,4.3,-999.0,81,-99.99,,,0.00,Acu-Link.com,2013-10-10 21:51:00,
2013-10-10 18:06:00,58.3,52.8,-100.00,NE,45,5.1,-999.0,82,-99.99,,,0.00,Acu-Link.com,2013-10-10 22:06:00,
2013-10-10 18:22:00,58.1,53.3,-100.00,ESE,112,6.7,-999.0,84,-99.99,,,0.00,Acu-Link.com,2013-10-10 22:22:00,
2013-10-10 18:37:00,57.7,52.9,-100.00,ESE,112,4.7,-999.0,84,-99.99,,,0.00,Acu-Link.com,2013-10-10 22:37:00,
2013-10-10 18:52:00,57.7,52.9,-100.00,ENE,67,2.7,-999.0,84,-99.99,,,0.00,Acu-Link.com,2013-10-10 22:52:00,
2013-10-10 19:07:00,57.6,53.1,-100.00,NE,45,4.7,-999.0,85,-99.99,,,0.00,Acu-Link.com,2013-10-10 23:07:00,
2013-10-10 19:22:00,57.7,52.9,-100.00,NE,45,1.1,-999.0,84,-99.99,,,0.00,Acu-Link.com,2013-10-10 23:22:00,
2013-10-10 19:37:00,57.7,52.9,-100.00,NNW,337,2.2,-999.0,84,-99.99,,,0.00,Acu-Link.com,2013-10-10 23:37:00,
2013-10-10 19:53:00,57.6,53.1,-100.00,NNE,22,3.1,-999.0,85,-99.99,,,0.00,Acu-Link.com,2013-10-10 23:53:00,
2013-10-10 20:08:00,57.4,53.2,-100.00,ENE,67,5.1,-999.0,86,-99.99,,,0.00,Acu-Link.com,2013-10-11 00:08:00,
2013-10-10 20:23:00,57.2,53.0,-100.00,ESE,112,1.1,-999.0,86,-99.99,,,0.00,Acu-Link.com,2013-10-11 00:23:00,
2013-10-10 20:38:00,57.0,53.2,-100.00,NNE,22,2.7,-999.0,87,-99.99,,,0.00,Acu-Link.com,2013-10-11 00:38:00,
2013-10-10 20:53:00,56.8,53.0,-100.00,NNE,22,3.8,-999.0,87,-99.99,,,0.00,Acu-Link.com,2013-10-11 00:53:00,
2013-10-10 21:08:00,56.8,53.3,-100.00,West,270,2.7,-999.0,88,-99.99,,,0.00,Acu-Link.com,2013-10-11 01:08:00,
2013-10-10 21:24:00,56.7,53.1,-100.00,NW,315,2.2,-999.0,88,-99.99,,,0.00,Acu-Link.com,2013-10-11 01:24:00,
2013-10-10 21:39:00,56.5,53.0,-100.00,North,0,0.0,-999.0,88,-99.99,,,0.00,Acu-Link.com,2013-10-11 01:39:00,
2013-10-10 21:54:00,56.1,52.9,-100.00,North,0,2.2,-999.0,89,-99.99,,,0.00,Acu-Link.com,2013-10-11 01:54:00,
2013-10-10 22:09:00,55.9,53.0,-100.00,East,90,0.0,-999.0,90,-99.99,,,0.00,Acu-Link.com,2013-10-11 02:09:00,
2013-10-10 22:24:00,54.9,52.3,-100.00,NNW,337,2.2,-999.0,91,-99.99,,,0.00,Acu-Link.com,2013-10-11 02:24:00,
2013-10-10 22:39:00,54.3,52.0,-100.00,NW,315,0.0,-999.0,92,-99.99,,,0.00,Acu-Link.com,2013-10-11 02:39:00,
2013-10-10 22:54:00,54.9,52.6,-100.00,NE,45,2.2,-999.0,92,-99.99,,,0.00,Acu-Link.com,2013-10-11 02:54:00,
2013-10-10 23:10:00,55.0,52.8,-100.00,West,270,0.0,-999.0,92,-99.99,,,0.00,Acu-Link.com,2013-10-11 03:10:00,
2013-10-10 23:25:00,54.7,52.4,-100.00,SW,225,2.2,-999.0,92,-99.99,,,0.00,Acu-Link.com,2013-10-11 03:25:00,
2013-10-10 23:40:00,53.8,51.5,-100.00,NE,45,0.0,-999.0,92,-99.99,,,0.00,Acu-Link.com,2013-10-11 03:40:00,
2013-10-10 23:55:00,53.6,51.9,-100.00,NW,315,1.6,-999.0,94,-99.99,,,0.00,Acu-Link.com,2013-10-11 03:55:00,